Time;durP1;ratioP1;P1;durP2;ratioP2;P2;SDS_P1;SDS_P2;PMS_P1;PMS_P2;Temp;Humidity;BMP_temperature;BMP_pressure;BME280_temperature;BME280_humidity;BME280_pressure;Samples;Min_cycle;Max_cycle;Signal;HPM_P1;HPM_P2
2022/01/03 00:00:19;;;;;;;15.75;4.60;;;;;;;10.19;84.47;101069.66;5092098;28;20077;-72
2022/01/03 00:02:46;;;;;;;12.13;4.57;;;;;;;10.17;84.48;101077.03;5092136;28;20032;-71
2022/01/03 00:05:11;;;;;;;12.07;3.50;;;;;;;10.09;84.61;101063.81;5092206;28;20077;-72
2022/01/03 00:07:39;;;;;;;19.65;3.55;;;;;;;10.07;84.54;101074.66;5091996;28;20032;-72
2022/01/03 00:10:05;;;;;;;12.32;3.75;;;;;;;10.04;84.88;101072.38;5091984;28;20034;-72
2022/01/03 00:12:32;;;;;;;9.93;2.25;;;;;;;10.01;85.19;101075.41;5091875;28;20028;-72
2022/01/03 00:14:59;;;;;;;14.55;3.67;;;;;;;9.99;85.34;101077.44;5092109;28;20036;-72
2022/01/03 00:17:25;;;;;;;10.85;2.58;;;;;;;9.98;85.19;101081.13;5091932;28;20028;-72
2022/01/03 00:19:50;;;;;;;16.45;2.53;;;;;;;9.97;85.65;101082.13;5090526;28;20040;-72
2022/01/03 00:22:21;;;;;;;17.77;3.92;;;;;;;9.95;85.60;101083.31;5091699;28;20475;-71
2022/01/03 00:24:57;;;;;;;12.70;3.53;;;;;;;9.91;85.22;101076.72;5091477;28;20028;-72
2022/01/03 00:27:32;;;;;;;13.25;3.42;;;;;;;9.92;85.47;101092.50;5091583;28;20482;-72
2022/01/03 00:29:58;;;;;;;15.68;3.65;;;;;;;9.92;85.63;101079.19;5091463;28;20040;-72
2022/01/03 00:32:26;;;;;;;18.38;3.40;;;;;;;9.87;85.72;101087.72;5091628;28;20028;-72
2022/01/03 00:34:52;;;;;;;14.48;4.82;;;;;;;9.85;85.64;101089.78;5091426;28;20020;-72
2022/01/03 00:37:20;;;;;;;10.15;3.28;;;;;;;9.86;85.68;101093.25;5091330;28;20030;-71
2022/01/03 00:39:46;;;;;;;17.63;3.80;;;;;;;9.82;85.22;101078.66;5091313;28;20020;-71
2022/01/03 00:42:15;;;;;;;18.55;2.95;;;;;;;9.81;85.28;101085.00;5091289;28;20035;-72
2022/01/03 00:44:42;;;;;;;16.58;3.83;;;;;;;9.76;85.48;101096.19;5091323;28;20544;-71
2022/01/03 00:47:10;;;;;;;19.58;4.22;;;;;;;9.73;85.17;101079.78;5091661;28;20475;-72
2022/01/03 00:49:39;;;;;;;17.85;4.97;;;;;;;9.78;84.55;101090.69;5091260;28;20118;-72
2022/01/03 00:52:06;;;;;;;17.23;3.38;;;;;;;9.81;84.58;101099.13;5091130;28;20111;-72
2022/01/03 00:54:31;;;;;;;10.73;3.70;;;;;;;9.87;84.20;101098.38;5091545;28;20108;-72
2022/01/03 00:57:03;;;;;;;11.68;3.28;;;;;;;9.90;84.26;101096.38;5091065;28;20479;-72
2022/01/03 00:59:36;;;;;;;13.60;4.03;;;;;;;9.93;84.21;101099.50;5071689;28;20028;-71
2022/01/03 01:02:03;;;;;;;15.60;3.67;;;;;;;9.92;83.87;101111.16;5071682;28;20046;-72
2022/01/03 01:04:30;;;;;;;12.95;2.60;;;;;;;9.91;83.78;101098.03;5069988;28;20123;-71
2022/01/03 01:06:57;;;;;;;18.95;3.92;;;;;;;9.94;83.70;101097.66;5090977;28;20382;-72
2022/01/03 01:09:24;;;;;;;18.23;5.50;;;;;;;9.98;83.34;101094.44;5090485;28;20437;-71
2022/01/03 01:11:53;;;;;;;16.08;2.78;;;;;;;9.99;83.40;101093.41;5090755;28;20077;-72
2022/01/03 01:14:20;;;;;;;12.90;6.30;;;;;;;10.02;83.06;101105.53;5090797;28;20032;-72
2022/01/03 01:16:45;;;;;;;12.48;2.85;;;;;;;10.04;83.19;101109.66;5090708;28;20047;-72
2022/01/03 01:19:11;;;;;;;19.80;4.40;;;;;;;10.05;82.69;101113.16;5090534;28;20024;-72
2022/01/03 01:21:37;;;;;;;13.60;4.75;;;;;;;10.05;83.09;101105.16;5091051;28;20055;-71
2022/01/03 01:24:03;;;;;;;11.32;3.67;;;;;;;10.06;83.02;101109.47;5071316;28;20491;-72
2022/01/03 01:29:13;;;;;;;7.18;3.45;;;;;;;10.03;83.16;101102.69;5090466;28;20559;-71
2022/01/03 01:31:51;;;;;;;12.15;2.60;;;;;;;10.06;82.94;101115.66;5090339;28;20059;-72
2022/01/03 01:34:27;;;;;;;11.23;3.13;;;;;;;10.07;82.64;101119.94;5090477;28;20032;-72
2022/01/03 01:36:56;;;;;;;13.50;4.55;;;;;;;10.03;82.77;101102.69;5090572;28;20020;-72
2022/01/03 01:39:24;;;;;;;15.32;3.55;;;;;;;10.05;82.49;101118.50;5090438;28;20031;-72
2022/01/03 01:41:53;;;;;;;15.93;4.32;;;;;;;10.01;82.94;101106.56;5090783;28;20463;-72
2022/01/03 01:44:21;;;;;;;15.10;4.32;;;;;;;9.98;82.82;101118.44;5090309;28;20111;-71
2022/01/03 01:46:53;;;;;;;18.85;6.45;;;;;;;9.97;82.72;101115.94;5070723;28;20020;-72
2022/01/03 01:49:20;;;;;;;16.98;3.63;;;;;;;9.94;82.97;101111.81;5070707;28;20028;-72
2022/01/03 01:51:48;;;;;;;14.70;3.75;;;;;;;9.91;82.57;101108.69;5090157;28;20028;-71
2022/01/03 01:54:16;;;;;;;20.60;3.55;;;;;;;9.89;82.69;101103.53;5090070;28;20049;-71
2022/01/03 01:56:54;;;;;;;15.02;4.15;;;;;;;9.94;82.75;101116.31;5089781;28;20028;-71
2022/01/03 01:59:25;;;;;;;12.73;4.20;;;;;;;9.87;82.40;101109.03;5089940;28;20031;-71
2022/01/03 02:02:03;;;;;;;11.48;3.60;;;;;;;9.83;83.02;101114.94;5089820;28;20455;-71
2022/01/03 02:04:37;;;;;;;17.63;3.70;;;;;;;9.78;83.34;101106.69;5089797;28;20024;-72
2022/01/03 02:07:24;;;;;;;16.17;4.03;;;;;;;9.74;83.20;101108.88;5089621;28;20446;-72
2022/01/03 02:10:08;;;;;;;24.17;6.60;;;;;;;9.68;83.52;101114.94;5089715;28;20501;-71
2022/01/03 02:12:42;;;;;;;13.10;3.53;;;;;;;9.63;83.79;101120.00;5089805;28;20540;-72
2022/01/03 02:15:13;;;;;;;19.30;3.70;;;;;;;9.57;83.87;101124.22;5089598;28;20483;-71
2022/01/03 02:17:39;;;;;;;10.40;4.18;;;;;;;9.54;84.25;101121.09;5089617;28;20486;-71
2022/01/03 02:20:11;;;;;;;13.25;3.63;;;;;;;9.48;84.16;101121.81;5088595;28;20036;-71
2022/01/03 02:22:39;;;;;;;17.13;3.33;;;;;;;9.46;84.21;101119.34;5089525;28;20114;-72
2022/01/03 02:25:09;;;;;;;14.60;3.22;;;;;;;9.46;84.63;101123.84;5089563;28;20044;-71
2022/01/03 02:27:36;;;;;;;11.23;3.05;;;;;;;9.46;84.77;101121.16;5089190;28;20044;-72
2022/01/03 02:30:04;;;;;;;16.10;3.20;;;;;;;9.46;84.91;101130.00;5089215;28;20459;-72
2022/01/03 02:32:30;;;;;;;13.73;3.80;;;;;;;9.42;85.21;101126.03;5069935;28;20032;-71
2022/01/03 02:34:55;;;;;;;13.00;3.42;;;;;;;9.36;85.52;101127.59;5089508;28;20028;-72
2022/01/03 02:37:22;;;;;;;13.85;4.75;;;;;;;9.31;85.56;101118.50;5089325;28;20026;-72
2022/01/03 02:39:47;;;;;;;21.58;3.35;;;;;;;9.25;85.77;101130.72;5089270;28;20502;-72
2022/01/03 02:42:13;;;;;;;14.90;3.58;;;;;;;9.21;86.13;101119.59;5089098;28;20035;-71
2022/01/03 02:44:42;;;;;;;11.13;3.08;;;;;;;9.14;86.21;101121.34;5089165;28;20116;-72
2022/01/03 02:47:07;;;;;;;14.60;3.92;;;;;;;9.19;86.36;101120.78;5089095;28;20036;-71
2022/01/03 02:49:32;;;;;;;18.60;4.35;;;;;;;9.16;86.32;101121.13;5089127;28;20043;-72
2022/01/03 02:51:58;;;;;;;16.13;4.05;;;;;;;9.16;86.36;101124.63;5087908;28;20028;-72
2022/01/03 02:54:23;;;;;;;23.10;5.82;;;;;;;9.18;86.41;101124.44;5088986;28;20034;-71
2022/01/03 02:56:49;;;;;;;17.27;4.18;;;;;;;9.14;86.64;101131.97;5089086;28;20016;-71
2022/01/03 02:59:16;;;;;;;17.65;4.32;;;;;;;9.17;86.42;101123.63;5089489;28;20040;-71
2022/01/03 03:01:43;;;;;;;9.88;3.20;;;;;;;9.12;86.87;101123.34;5089009;28;20071;-71
2022/01/03 03:04:09;;;;;;;16.67;4.35;;;;;;;9.12;86.77;101130.50;5088839;28;20028;-72
2022/01/03 03:06:34;;;;;;;18.80;3.47;;;;;;;9.10;86.63;101121.88;5069645;28;20040;-71
2022/01/03 03:09:04;;;;;;;16.33;3.90;;;;;;;9.14;86.68;101134.66;5069637;28;20040;-71
2022/01/03 03:11:36;;;;;;;20.13;4.97;;;;;;;9.13;86.81;101130.31;5088632;28;20093;-72
2022/01/03 03:14:02;;;;;;;18.80;3.60;;;;;;;9.11;87.05;101129.66;5087672;28;20036;-72
2022/01/03 03:16:28;;;;;;;12.70;3.38;;;;;;;9.09;87.12;101131.69;5089090;28;20069;-72
2022/01/03 03:18:54;;;;;;;14.40;3.53;;;;;;;9.11;86.92;101142.13;5088871;28;20562;-71
2022/01/03 03:21:20;;;;;;;15.30;3.92;;;;;;;9.10;86.83;101140.50;5088809;28;20097;-71
2022/01/03 03:23:45;;;;;;;16.73;4.20;;;;;;;9.10;87.33;101133.34;5089013;28;20467;-71
2022/01/03 03:26:11;;;;;;;16.02;4.75;;;;;;;9.10;86.98;101132.50;5088621;28;20028;-71
2022/01/03 03:28:37;;;;;;;14.30;2.95;;;;;;;9.11;87.03;101144.78;5088783;28;20020;-71
2022/01/03 03:31:02;;;;;;;23.95;3.92;;;;;;;9.09;87.05;101138.81;5089019;28;20097;-72
2022/01/03 03:33:29;;;;;;;16.75;4.00;;;;;;;9.11;87.42;101142.13;5092687;28;20031;-71
2022/01/03 03:35:56;;;;;;;15.40;4.07;;;;;;;9.16;87.03;101142.44;5092803;28;20043;-72
2022/01/03 03:38:25;;;;;;;13.75;4.05;;;;;;;9.21;86.95;101148.84;5092611;28;20035;-71
2022/01/03 03:40:58;;;;;;;12.75;3.92;;;;;;;9.26;86.96;101143.00;5092514;28;20024;-71
2022/01/03 03:43:23;;;;;;;11.80;4.63;;;;;;;9.29;86.48;101144.47;5092540;28;20032;-71
2022/01/03 03:45:49;;;;;;;25.25;5.43;;;;;;;9.25;86.53;101132.53;5092367;28;20020;-71
2022/01/03 03:48:15;;;;;;;17.77;3.25;;;;;;;9.27;86.52;101134.00;5092307;28;20030;-72
2022/01/03 03:50:41;;;;;;;21.40;4.20;;;;;;;9.30;86.52;101140.78;5092815;28;20055;-71
2022/01/03 03:53:07;;;;;;;16.38;4.13;;;;;;;9.29;86.75;101142.63;5092196;28;20399;-71
2022/01/03 03:55:33;;;;;;;16.13;4.35;;;;;;;9.28;86.50;101135.66;5092261;28;20036;-71
2022/01/03 03:57:59;;;;;;;17.42;3.90;;;;;;;9.28;86.71;101126.88;5092438;28;20033;-72
2022/01/03 04:00:25;;;;;;;22.17;3.47;;;;;;;9.25;86.90;101120.06;5090947;28;20123;-71
2022/01/03 04:02:50;;;;;;;16.55;3.60;;;;;;;9.28;86.82;101124.22;5092177;28;20135;-71
2022/01/03 04:05:16;;;;;;;15.85;3.35;;;;;;;9.27;87.00;101131.34;5092048;28;20031;-71
2022/01/03 04:07:41;;;;;;;15.25;3.85;;;;;;;9.27;87.14;101131.34;5091841;28;20044;-72
2022/01/03 04:10:09;;;;;;;13.60;4.22;;;;;;;9.30;87.21;101123.00;5091842;28;20493;-71
2022/01/03 04:12:34;;;;;;;19.83;5.82;;;;;;;9.31;87.08;101122.00;5091806;28;20044;-71
2022/01/03 04:15:00;;;;;;;15.95;4.15;;;;;;;9.30;87.04;101117.69;5090607;28;20036;-71
2022/01/03 04:17:25;;;;;;;10.82;3.53;;;;;;;9.30;87.21;101114.19;5091827;28;20498;-72
2022/01/03 04:19:50;;;;;;;7.25;4.40;;;;;;;9.29;87.22;101113.34;5091793;28;20382;-71
2022/01/03 04:22:16;;;;;;;15.65;3.78;;;;;;;9.32;87.05;101109.50;5091678;28;20065;-72
2022/01/03 04:24:41;;;;;;;17.17;2.83;;;;;;;9.30;87.21;101112.38;5092014;28;20107;-71
2022/01/03 04:27:06;;;;;;;15.18;3.38;;;;;;;9.28;87.41;101105.56;5091622;28;20152;-71
2022/01/03 04:29:32;;;;;;;18.73;4.93;;;;;;;9.27;87.11;101103.91;5090404;28;20055;-71
2022/01/03 04:31:57;;;;;;;13.27;4.20;;;;;;;9.23;87.33;101099.97;5091793;28;20028;-71
2022/01/03 04:34:23;;;;;;;19.83;4.10;;;;;;;9.23;87.06;101100.78;5091661;28;20578;-71
2022/01/03 04:36:49;;;;;;;15.68;2.92;;;;;;;9.21;87.60;101106.28;5091393;28;20028;-71
2022/01/03 04:39:14;;;;;;;12.93;3.13;;;;;;;9.19;87.29;101100.31;5091458;28;20036;-71
2022/01/03 04:41:39;;;;;;;15.05;3.10;;;;;;;9.20;87.59;101106.47;5091432;28;20028;-72
2022/01/03 04:44:05;;;;;;;21.35;5.88;;;;;;;9.23;87.29;101102.63;5090389;28;20122;-71
2022/01/03 04:46:35;;;;;;;22.25;4.05;;;;;;;9.25;87.57;101104.09;5091310;28;20059;-71
2022/01/03 04:49:01;;;;;;;15.48;4.38;;;;;;;9.26;87.27;101108.41;5091371;28;20028;-71
2022/01/03 04:51:27;;;;;;;15.55;4.22;;;;;;;9.30;87.18;101096.41;5091238;28;20039;-71
2022/01/03 04:53:53;;;;;;;16.20;4.95;;;;;;;9.34;86.92;101097.66;5090982;28;20040;-71
2022/01/03 04:56:18;;;;;;;23.17;4.57;;;;;;;9.32;86.95;101089.03;5091275;28;20070;-71
2022/01/03 04:58:43;;;;;;;15.15;3.17;;;;;;;9.32;86.78;101102.34;5091048;28;20031;-72
2022/01/03 05:01:10;;;;;;;15.82;4.63;;;;;;;9.30;86.90;101092.88;5091064;28;20063;-71
2022/01/03 05:03:35;;;;;;;19.40;3.92;;;;;;;9.31;87.09;101102.53;5091123;28;20032;-71
2022/01/03 05:06:01;;;;;;;17.65;4.55;;;;;;;9.33;86.86;101095.22;5071514;28;20108;-72
2022/01/03 05:08:29;;;;;;;14.07;3.88;;;;;;;9.32;87.20;101098.84;5090643;28;20076;-71
2022/01/03 05:10:55;;;;;;;16.75;3.47;;;;;;;9.29;87.27;101110.69;5090854;28;20020;-71
2022/01/03 05:13:20;;;;;;;12.30;3.85;;;;;;;9.26;87.24;101104.91;5090869;28;20035;-72
2022/01/03 05:15:46;;;;;;;16.55;3.45;;;;;;;9.24;87.61;101086.47;5089279;28;20028;-71
2022/01/03 05:18:11;;;;;;;13.45;3.15;;;;;;;9.22;87.23;101093.78;5090783;28;20024;-71
2022/01/03 05:20:37;;;;;;;19.33;3.50;;;;;;;9.26;87.12;101094.28;5090605;28;20568;-71
2022/01/03 05:23:02;;;;;;;13.35;3.20;;;;;;;9.24;87.15;101080.31;5090493;28;20123;-71
2022/01/03 05:25:27;;;;;;;11.38;3.92;;;;;;;9.32;86.88;101082.88;5089298;28;20028;-72
2022/01/03 05:27:54;;;;;;;14.18;4.75;;;;;;;9.34;86.74;101078.22;5090391;28;20128;-71
2022/01/03 05:30:20;;;;;;;27.33;5.20;;;;;;;9.33;86.81;101073.91;5090198;28;20079;-71
2022/01/03 05:32:45;;;;;;;27.48;3.33;;;;;;;9.36;86.77;101073.53;5090471;28;20047;-72
2022/01/03 05:35:11;;;;;;;13.00;2.78;;;;;;;9.35;86.98;101063.88;5090337;28;20119;-72
2022/01/03 05:37:36;;;;;;;15.07;3.25;;;;;;;9.28;87.05;101065.66;5090509;28;20031;-71
2022/01/03 05:40:03;;;;;;;11.88;4.10;;;;;;;9.25;87.17;101069.50;5072843;28;20035;-72
2022/01/03 05:42:28;;;;;;;11.40;3.42;;;;;;;9.23;87.40;101070.69;5090191;28;20032;-72
2022/01/03 05:44:53;;;;;;;13.32;3.80;;;;;;;9.21;87.56;101068.19;5090290;28;20107;-71
2022/01/03 05:47:19;;;;;;;13.65;3.22;;;;;;;9.23;87.56;101071.50;5088911;28;20031;-71
2022/01/03 05:49:44;;;;;;;19.17;4.38;;;;;;;9.24;87.66;101064.34;5090063;28;20039;-71
2022/01/03 05:52:09;;;;;;;21.40;5.30;;;;;;;9.25;87.72;101064.19;5089897;28;20024;-71
2022/01/03 05:54:35;;;;;;;18.67;3.38;;;;;;;9.26;87.14;101055.16;5089995;28;20039;-72
2022/01/03 05:57:00;;;;;;;19.05;5.07;;;;;;;9.30;87.39;101059.13;5088670;28;20024;-72
2022/01/03 05:59:26;;;;;;;15.15;3.63;;;;;;;9.29;87.01;101052.13;5089896;28;20032;-72
2022/01/03 06:01:53;;;;;;;16.98;3.90;;;;;;;9.28;87.21;101055.81;5089735;28;20114;-71
2022/01/03 06:04:24;;;;;;;16.00;4.97;;;;;;;9.29;87.22;101052.13;5089781;28;20115;-72
2022/01/03 06:07:03;;;;;;;15.57;3.28;;;;;;;9.29;86.96;101054.81;5089817;28;20035;-71
2022/01/03 06:09:28;;;;;;;13.93;2.70;;;;;;;9.23;87.43;101042.25;5089748;28;20488;-72
2022/01/03 06:11:54;;;;;;;8.52;2.40;;;;;;;9.31;86.85;101054.63;5089702;28;20039;-71
2022/01/03 06:14:21;;;;;;;13.80;2.13;;;;;;;9.29;87.31;101056.66;5089663;28;20040;-71
2022/01/03 06:16:48;;;;;;;16.85;3.38;;;;;;;9.30;86.90;101058.28;5089577;28;20668;-72
2022/01/03 06:19:14;;;;;;;16.08;3.05;;;;;;;9.28;87.31;101049.69;5089590;28;20369;-71
2022/01/03 06:21:41;;;;;;;14.18;3.17;;;;;;;9.30;87.12;101052.97;5089729;28;20558;-71
2022/01/03 06:24:15;;;;;;;14.32;4.25;;;;;;;9.32;87.18;101051.78;5076300;28;20499;-71
2022/01/03 06:26:42;;;;;;;16.95;3.25;;;;;;;9.34;86.71;101059.59;5069933;28;20024;-71
2022/01/03 06:29:12;;;;;;;18.73;3.58;;;;;;;9.28;87.14;101057.66;5089188;28;20059;-71
2022/01/03 06:31:39;;;;;;;17.27;3.03;;;;;;;9.18;87.38;101047.28;5089155;28;20071;-71
2022/01/03 06:34:04;;;;;;;15.07;3.67;;;;;;;9.24;87.59;101037.75;5089526;28;20111;-71
2022/01/03 06:36:30;;;;;;;21.05;3.95;;;;;;;9.22;87.40;101043.22;5070178;28;20103;-72
2022/01/03 06:38:56;;;;;;;11.45;2.38;;;;;;;9.20;87.89;101037.28;5069895;28;20498;-71
2022/01/03 06:41:22;;;;;;;12.77;2.58;;;;;;;9.16;87.81;101047.44;5069790;28;20040;-71
2022/01/03 06:43:48;;;;;;;10.05;2.72;;;;;;;9.14;88.17;101033.53;5089059;28;20475;-72
2022/01/03 06:46:13;;;;;;;10.45;2.40;;;;;;;9.13;88.00;101042.50;5089078;28;20039;-70
2022/01/03 06:48:39;;;;;;;13.60;3.20;;;;;;;9.07;88.31;101024.63;5089123;28;20541;-72
2022/01/03 06:51:04;;;;;;;21.45;5.05;;;;;;;9.03;88.37;101033.97;5089148;28;20128;-71
2022/01/03 06:53:30;;;;;;;14.82;2.85;;;;;;;9.00;88.49;101031.66;5089198;28;20036;-71
2022/01/03 06:55:55;;;;;;;14.70;2.97;;;;;;;8.97;88.83;101035.50;5088991;28;20028;-71
2022/01/03 06:58:21;;;;;;;19.63;5.10;;;;;;;8.96;88.98;101036.53;5089080;28;20109;-71
2022/01/03 07:00:46;;;;;;;8.43;2.63;;;;;;;8.96;89.00;101027.69;5088993;28;20052;-72
2022/01/03 07:03:11;;;;;;;12.60;2.50;;;;;;;8.99;88.91;101033.50;5088981;28;20454;-71
2022/01/03 07:05:37;;;;;;;12.73;2.03;;;;;;;8.97;89.44;101035.50;5071171;28;20032;-72
2022/01/03 07:08:02;;;;;;;20.85;4.57;;;;;;;8.95;89.62;101036.69;5093141;28;20039;-72
2022/01/03 07:10:28;;;;;;;16.42;3.13;;;;;;;8.91;90.02;101027.44;5093061;28;20387;-71
2022/01/03 07:12:54;;;;;;;21.30;4.25;;;;;;;8.90;90.22;101031.91;5093115;28;20059;-72
2022/01/03 07:20:49;;;;;;;12.55;3.78;;;;;;;8.86;90.98;101021.84;5073833;28;20047;-71
2022/01/03 07:23:16;;;;;;;9.70;2.83;;;;;;;8.91;91.40;101032.78;5091631;28;20039;-72
2022/01/03 07:25:41;;;;;;;10.75;2.88;;;;;;;8.92;91.37;101031.75;5092624;28;20047;-71
2022/01/03 07:28:07;;;;;;;11.93;2.78;;;;;;;8.93;91.17;101020.09;5092726;28;20028;-72
2022/01/03 07:30:32;;;;;;;19.83;3.33;;;;;;;8.95;91.29;101023.41;5092709;28;20503;-71
2022/01/03 07:32:58;;;;;;;6.75;2.00;;;;;;;8.97;91.34;101026.72;5091421;28;20024;-72
2022/01/03 07:35:24;;;;;;;9.05;2.05;;;;;;;8.98;91.22;101031.84;5092817;28;20158;-72
2022/01/03 07:37:50;;;;;;;12.60;2.85;;;;;;;8.97;91.45;101029.38;5092689;28;20024;-71
2022/01/03 07:40:15;;;;;;;18.15;3.65;;;;;;;8.92;91.43;101029.91;5092459;28;20028;-71
2022/01/03 07:42:42;;;;;;;7.60;2.20;;;;;;;8.91;91.32;101024.78;5091119;28;20068;-72
2022/01/03 07:45:08;;;;;;;9.95;2.95;;;;;;;8.85;91.39;101028.16;5092391;28;20061;-71
2022/01/03 07:47:34;;;;;;;10.20;3.20;;;;;;;8.78;91.60;101022.75;5092318;28;20032;-71
2022/01/03 07:49:59;;;;;;;11.68;2.65;;;;;;;8.69;91.89;101029.94;5092419;28;20073;-71
2022/01/03 07:52:24;;;;;;;12.13;3.15;;;;;;;8.65;91.83;101039.31;5091188;28;20054;-71
2022/01/03 07:54:52;;;;;;;8.48;2.42;;;;;;;8.63;92.00;101041.31;5092526;28;20041;-72
2022/01/03 07:57:18;;;;;;;13.20;2.38;;;;;;;8.61;91.98;101043.31;5092353;28;20068;-71
2022/01/03 07:59:45;;;;;;;12.18;2.70;;;;;;;8.61;91.83;101053.94;5092407;28;20036;-71
2022/01/03 08:02:10;;;;;;;17.13;4.70;;;;;;;8.61;91.93;101059.28;5092010;28;20035;-71
2022/01/03 08:04:36;;;;;;;9.90;2.75;;;;;;;8.61;91.84;101053.13;5091092;28;20056;-72
2022/01/03 08:07:01;;;;;;;15.50;4.32;;;;;;;8.53;92.17;101046.88;5078431;28;20111;-69
2022/01/03 08:09:27;;;;;;;5.72;2.10;;;;;;;8.61;92.26;101055.78;5092145;28;20066;-72
2022/01/03 08:11:52;;;;;;;17.25;2.72;;;;;;;8.67;92.14;101044.44;5092229;28;20056;-72
2022/01/03 08:14:18;;;;;;;9.20;2.90;;;;;;;8.75;91.78;101039.88;5076179;28;20032;-70
2022/01/03 08:16:43;;;;;;;18.65;2.70;;;;;;;8.78;91.63;101041.38;5076661;28;20633;-69
2022/01/03 08:19:08;;;;;;;9.52;2.33;;;;;;;8.80;91.31;101044.66;5077388;28;20546;-69
2022/01/03 08:21:34;;;;;;;8.70;3.22;;;;;;;8.83;91.32;101038.13;5076992;28;20085;-72
2022/01/03 08:23:59;;;;;;;8.15;3.08;;;;;;;8.85;91.38;101042.28;5076239;28;20149;-74
2022/01/03 08:26:24;;;;;;;14.73;2.58;;;;;;;8.94;90.61;101049.19;5076371;28;20109;-72
2022/01/03 08:28:50;;;;;;;5.80;1.73;;;;;;;8.99;91.26;101046.81;5075802;28;20120;-72
2022/01/03 08:31:16;;;;;;;13.18;3.42;;;;;;;9.02;90.63;101050.94;5076221;28;20095;-72
2022/01/03 08:33:43;;;;;;;20.83;4.25;;;;;;;8.98;90.08;101039.00;5077068;28;20047;-72
2022/01/03 08:36:08;;;;;;;9.68;3.05;;;;;;;9.06;90.30;101046.88;5075237;28;20032;-72
2022/01/03 08:38:34;;;;;;;10.32;3.10;;;;;;;9.07;90.27;101047.75;5077444;28;20062;-72
2022/01/03 08:41:00;;;;;;;16.35;3.85;;;;;;;9.13;89.88;101047.00;5075322;28;20491;-72
2022/01/03 08:43:25;;;;;;;6.45;2.38;;;;;;;9.15;89.84;101045.00;5076567;28;20063;-72
2022/01/03 08:45:50;;;;;;;18.73;3.50;;;;;;;9.17;89.66;101048.31;5076377;28;20032;-72
2022/01/03 08:48:16;;;;;;;12.85;3.25;;;;;;;9.21;89.50;101039.75;5074031;28;20032;-72
2022/01/03 08:50:41;;;;;;;9.60;2.95;;;;;;;9.29;89.90;101046.81;5076434;28;20028;-71
2022/01/03 08:53:07;;;;;;;9.50;2.47;;;;;;;9.32;89.17;101042.97;5075241;28;20041;-73
2022/01/03 08:55:33;;;;;;;12.05;2.78;;;;;;;9.35;89.24;101045.25;5075219;28;20028;-72
2022/01/03 08:57:58;;;;;;;16.77;3.25;;;;;;;9.39;88.68;101057.19;5075869;28;20062;-72
2022/01/03 09:00:25;;;;;;;13.05;2.55;;;;;;;9.39;88.88;101059.88;5075642;28;20038;-72
2022/01/03 09:02:50;;;;;;;19.52;3.70;;;;;;;9.32;88.71;101048.28;5075815;28;20085;-73
2022/01/03 09:05:16;;;;;;;17.65;3.28;;;;;;;9.44;88.61;101060.13;5075389;28;20031;-72
2022/01/03 09:07:41;;;;;;;10.45;2.83;;;;;;;9.51;88.57;101062.88;5076108;28;20024;-71
2022/01/03 09:10:07;;;;;;;13.30;2.60;;;;;;;9.52;88.67;101072.53;5075682;28;20028;-70
2022/01/03 09:12:33;;;;;;;12.80;3.38;;;;;;;9.53;88.67;101067.00;5075875;28;20027;-71
2022/01/03 09:14:58;;;;;;;10.10;2.47;;;;;;;9.69;88.09;101054.50;5075883;28;20024;-73
2022/01/03 09:17:24;;;;;;;21.23;2.40;;;;;;;9.79;88.38;101047.06;5074639;28;20039;-73
2022/01/03 09:19:50;;;;;;;12.20;3.28;;;;;;;9.82;88.11;101044.00;5075760;28;20027;-71
2022/01/03 09:22:20;;;;;;;14.23;3.05;;;;;;;9.76;87.11;101037.59;5075693;28;20119;-73
2022/01/03 09:24:53;;;;;;;10.05;2.90;;;;;;;9.75;87.54;101038.63;5075307;28;20399;-72
2022/01/03 09:30:05;;;;;;;8.80;2.33;;;;;;;9.70;87.95;101040.19;5074108;28;20091;-72
2022/01/03 09:32:31;;;;;;;14.93;3.17;;;;;;;9.72;87.60;101028.34;5075387;28;20123;-70
2022/01/03 09:34:57;;;;;;;22.30;4.00;;;;;;;9.75;87.58;101032.47;5074979;28;20107;-73
2022/01/03 09:37:23;;;;;;;12.32;2.30;;;;;;;9.85;87.22;101035.66;5076276;28;20036;-71
2022/01/03 09:39:49;;;;;;;10.40;2.05;;;;;;;9.88;86.66;101027.31;5075724;28;20070;-71
2022/01/03 09:42:21;;;;;;;11.27;2.80;;;;;;;9.87;86.55;101018.47;5075873;28;20032;-71
2022/01/03 09:44:48;;;;;;;13.98;6.45;;;;;;;9.84;86.30;101013.50;5075896;28;20479;-71
2022/01/03 09:47:16;;;;;;;13.32;4.05;;;;;;;9.79;86.37;101010.59;5070976;28;20025;-72
2022/01/03 09:49:42;;;;;;;13.93;3.22;;;;;;;9.80;86.57;101006.09;5090151;28;20048;-73
2022/01/03 09:52:08;;;;;;;17.38;3.47;;;;;;;9.86;86.55;101013.34;5085879;28;20134;-73
2022/01/03 09:54:36;;;;;;;12.25;2.47;;;;;;;9.93;86.34;101021.38;5083237;28;20038;-73
2022/01/03 09:57:03;;;;;;;17.60;3.67;;;;;;;9.99;86.19;101026.81;5090303;28;20020;-72
2022/01/03 09:59:30;;;;;;;8.52;2.85;;;;;;;10.09;85.60;101024.66;5086828;28;20123;-72
2022/01/03 10:01:56;;;;;;;15.90;3.08;;;;;;;10.20;85.55;101022.50;5086380;28;20062;-70
2022/01/03 10:04:22;;;;;;;8.38;2.85;;;;;;;10.37;84.66;101025.78;5081533;28;20052;-71
2022/01/03 10:06:49;;;;;;;16.90;2.83;;;;;;;10.47;84.14;101021.75;5083781;28;20037;-72
2022/01/03 10:09:14;;;;;;;16.83;4.10;;;;;;;10.52;84.60;101014.00;5089569;28;20062;-72
2022/01/03 10:11:40;;;;;;;13.52;2.58;;;;;;;10.61;84.17;101016.53;5080717;28;20036;-72
2022/01/03 10:14:05;;;;;;;17.10;3.28;;;;;;;10.61;83.89;101014.72;5089813;28;20032;-72
2022/01/03 10:16:31;;;;;;;12.82;3.33;;;;;;;10.60;84.38;101012.22;5087176;28;20028;-73
2022/01/03 10:18:57;;;;;;;8.52;2.85;;;;;;;10.48;84.11;101002.09;5088423;28;20459;-71
2022/01/03 10:21:40;;;;;;;10.70;2.50;;;;;;;10.50;84.33;101010.72;5070667;28;20036;-72
2022/01/03 10:24:07;;;;;;;12.88;4.35;;;;;;;10.52;83.97;101005.19;5089510;28;20040;-71
2022/01/03 10:26:34;;;;;;;12.43;2.30;;;;;;;10.49;84.36;101001.06;5071263;28;20056;-71
2022/01/03 10:29:19;;;;;;;15.50;3.72;;;;;;;10.58;84.55;101006.25;5089656;28;20016;-72
2022/01/03 10:31:47;;;;;;;14.70;2.55;;;;;;;10.57;83.88;101020.63;5089415;28;20514;-72
2022/01/03 10:34:14;;;;;;;14.73;4.13;;;;;;;10.50;84.25;101016.03;5089620;28;20035;-71
2022/01/03 10:36:45;;;;;;;13.95;4.78;;;;;;;10.49;83.75;101009.06;5089477;28;20479;-71
2022/01/03 10:39:18;;;;;;;17.65;3.95;;;;;;;10.47;84.18;101007.59;5089644;28;20379;-71
2022/01/03 10:41:51;;;;;;;14.88;2.65;;;;;;;10.44;84.03;101003.47;5088517;28;20674;-71
2022/01/03 10:44:31;;;;;;;13.93;3.50;;;;;;;10.43;84.44;101009.03;5088114;28;20028;-71
2022/01/03 10:46:57;;;;;;;12.20;2.72;;;;;;;10.36;84.52;101002.81;5089359;28;20028;-72
2022/01/03 10:49:25;;;;;;;9.60;2.53;;;;;;;10.40;84.21;101004.06;5089323;28;20050;-71
2022/01/03 10:51:50;;;;;;;20.17;3.10;;;;;;;10.38;84.17;100988.25;5089307;28;20039;-71
2022/01/03 10:54:18;;;;;;;22.27;3.67;;;;;;;10.38;84.33;100990.13;5089505;28;20360;-71
2022/01/03 10:56:50;;;;;;;14.95;3.40;;;;;;;10.36;84.79;100987.63;5075826;28;20497;-72
2022/01/03 10:59:21;;;;;;;15.95;3.42;;;;;;;10.37;84.74;100985.78;5089343;28;20137;-72
2022/01/03 11:02:10;;;;;;;9.68;2.40;;;;;;;10.37;84.91;100975.94;5089384;28;20028;-72
2022/01/03 11:04:50;;;;;;;15.45;5.47;;;;;;;10.38;83.95;100984.78;5089360;28;20032;-72
2022/01/03 11:13:15;;;;;;;9.30;4.15;;;;;;;10.37;84.55;100970.59;5089451;28;20069;-73
2022/01/03 11:15:55;;;;;;;13.30;3.30;;;;;;;10.34;83.88;100967.50;5069981;28;20042;-72
2022/01/03 11:18:44;;;;;;;11.60;2.47;;;;;;;10.36;84.12;100960.97;5088698;28;20020;-73
2022/01/03 11:21:21;;;;;;;14.38;2.47;;;;;;;10.37;84.15;100965.25;5089355;28;20063;-73
2022/01/03 11:23:48;;;;;;;13.45;3.03;;;;;;;10.38;83.46;100955.44;5088878;28;20139;-72
2022/01/03 11:26:17;;;;;;;11.43;3.80;;;;;;;10.40;83.53;100956.91;5075782;28;20035;-73
2022/01/03 11:28:43;;;;;;;13.07;2.58;;;;;;;10.37;83.79;100954.59;5088757;28;20037;-72
2022/01/03 11:31:10;;;;;;;15.38;3.75;;;;;;;10.34;83.52;100963.00;5089056;28;20066;-72
2022/01/03 11:33:37;;;;;;;15.73;2.85;;;;;;;10.32;83.68;100946.34;5088969;28;20138;-72
2022/01/03 11:36:04;;;;;;;9.88;2.25;;;;;;;10.35;83.71;100954.00;5081491;28;20024;-72
2022/01/03 11:38:31;;;;;;;12.93;3.70;;;;;;;10.40;83.34;100950.72;5077159;28;20029;-72
2022/01/03 11:41:03;;;;;;;18.42;3.47;;;;;;;10.49;82.95;100938.91;5085350;28;20024;-73